LDZA METAR and TAF | Updated Today

LDZA METAR

Zagreb Airport

Observation time: 20 min. ago

LDZA 052030Z 06003KT 030V090 CAVOK M04/M09 Q1035 NOSIG

Need help? Read our tutorial on how to read METARs or read the parsed version below.

Zagreb Airport (LDZA) METAR

  • Weather conditions on Sun, 05 Feb 2023 20:30:00 +0000 (20 min. ago):
  • Present conditions: Dry
  • Clouds: Clear skies
  • Visibility: Greater than 10 km
  • Wind: 60 degrees at 3 knots
  • Temperature: -4 celsius
  • Dew point: -9 celsius
  • Pressure: 1035 millibars
  • Remarks: None


Useful to know...

LDZA TAF

Zagreb Airport

TAF LDZA 051725Z 0518/0618 04006KT CAVOK TX00/0613Z TNM05/0605Z
Observation time: 3:25 hr. ago
Need help? Read our tutorial on how to read TAFs or read the parsed version below.

Parsed version of TAF for Zagreb Airport (LDZA)

  • From 05 February at 18:00 UTC, to day 06 of the month at 18:00 UTC
  • Visibility: Greater than 10 km
  • Wind: 40 degrees at 6

Airports near LDZA